Shemah Yisrael!
Hear, O Israel: the LORD our God, the LORD is one.
You shall love the LORD your God with all your heart and with all your soul and with all your might.
(Deuteronomy 6:4-5)
Houston / Ellington, TX, United States (KEFD) 29-36N 095-10W
Jul 28, 2021 - 03:50 PM EDT / 2021.07.28 1950 UTC
Wind: from the ENE (070 degrees) at 6 MPH (5 KT) gusting to 14 MPH (12 KT):0
Visibility: 10 mile(s):0
Sky conditions: partly cloudy
Temperature: 91 F (33 C)
Heat index: 101.5 F (38.6 C):1
Dew Point: 75 F (24 C)
Relative Humidity: 59%
Pressure (altimeter): 29.99 in. Hg (1015 hPa)
ob: KEFD 281950Z 07005G12KT 10SM SCT046 33/24 A2999 
cycle: 20
w e b m a s t e r   a t   s h e m a h   d o t   n e t